Terminal Aerodrome Forecast
Issued by NWS Mobile, AL

Home | Current Version | Previous Version | Text Only | Print | Product List | Glossary On
Versions: 1 2 3 4 5 6 7 8 9 10 11 12 13 14 15
000
FTUS44 KMOB 251132
TAFMOB
TAF
KMOB 251132Z 2512/2612 04006KT P6SM VCSH SCT025 SCT060
     FM251600 11010G16KT P6SM VCTS BKN035CB
     FM252300 13008KT P6SM SCT025
     FM260900 10008KT P6SM VCSH BKN025=

USA.gov is the U.S. government's official web portal to all federal, state and local government web resources and services.